sensor_id;sensor_type;location;lat;lon;timestamp;P1;durP1;ratioP1;P2;durP2;ratioP2
78672;SDS011;67988;60.086;30.354;2023-07-13T00:00:30;2.08;;;1.27;;
78672;SDS011;67988;60.086;30.354;2023-07-13T00:05:26;6.03;;;1.98;;
78672;SDS011;67988;60.086;30.354;2023-07-13T00:07:53;3.25;;;1.40;;
78672;SDS011;67988;60.086;30.354;2023-07-13T00:10:20;2.55;;;1.27;;
78672;SDS011;67988;60.086;30.354;2023-07-13T00:12:48;3.53;;;1.20;;
78672;SDS011;67988;60.086;30.354;2023-07-13T00:15:16;2.88;;;1.08;;
78672;SDS011;67988;60.086;30.354;2023-07-13T00:17:48;3.13;;;1.77;;
78672;SDS011;67988;60.086;30.354;2023-07-13T00:20:17;2.83;;;1.60;;
78672;SDS011;67988;60.086;30.354;2023-07-13T00:22:44;8.05;;;1.23;;
78672;SDS011;67988;60.086;30.354;2023-07-13T00:25:12;3.33;;;1.20;;
78672;SDS011;67988;60.086;30.354;2023-07-13T00:27:39;6.90;;;1.55;;
78672;SDS011;67988;60.086;30.354;2023-07-13T00:32:34;1.65;;;0.98;;
78672;SDS011;67988;60.086;30.354;2023-07-13T00:35:01;2.90;;;1.38;;
78672;SDS011;67988;60.086;30.354;2023-07-13T00:37:31;4.53;;;1.42;;
78672;SDS011;67988;60.086;30.354;2023-07-13T00:39:58;3.58;;;1.63;;
78672;SDS011;67988;60.086;30.354;2023-07-13T00:42:26;2.78;;;1.45;;
78672;SDS011;67988;60.086;30.354;2023-07-13T00:45:04;6.80;;;1.23;;
78672;SDS011;67988;60.086;30.354;2023-07-13T00:47:33;2.97;;;1.35;;
78672;SDS011;67988;60.086;30.354;2023-07-13T00:50:00;2.75;;;1.38;;
78672;SDS011;67988;60.086;30.354;2023-07-13T00:52:30;5.60;;;1.50;;
78672;SDS011;67988;60.086;30.354;2023-07-13T00:54:59;2.72;;;1.52;;
78672;SDS011;67988;60.086;30.354;2023-07-13T00:57:26;5.43;;;1.27;;
78672;SDS011;67988;60.086;30.354;2023-07-13T00:59:54;3.60;;;1.10;;
78672;SDS011;67988;60.086;30.354;2023-07-13T01:02:25;3.20;;;1.58;;
78672;SDS011;67988;60.086;30.354;2023-07-13T01:04:55;3.58;;;2.03;;
78672;SDS011;67988;60.086;30.354;2023-07-13T01:07:23;5.97;;;2.00;;
78672;SDS011;67988;60.086;30.354;2023-07-13T01:09:52;4.93;;;1.95;;
78672;SDS011;67988;60.086;30.354;2023-07-13T01:12:19;5.85;;;1.23;;
78672;SDS011;67988;60.086;30.354;2023-07-13T01:14:46;3.63;;;1.25;;
78672;SDS011;67988;60.086;30.354;2023-07-13T01:17:13;2.70;;;1.30;;
78672;SDS011;67988;60.086;30.354;2023-07-13T01:19:41;3.45;;;1.67;;
78672;SDS011;67988;60.086;30.354;2023-07-13T01:22:12;3.28;;;1.92;;
78672;SDS011;67988;60.086;30.354;2023-07-13T01:24:41;9.38;;;2.08;;
78672;SDS011;67988;60.086;30.354;2023-07-13T01:27:10;7.65;;;2.10;;
78672;SDS011;67988;60.086;30.354;2023-07-13T01:29:39;3.78;;;1.27;;
78672;SDS011;67988;60.086;30.354;2023-07-13T01:32:09;5.53;;;1.80;;
78672;SDS011;67988;60.086;30.354;2023-07-13T01:34:38;5.40;;;1.17;;
78672;SDS011;67988;60.086;30.354;2023-07-13T01:37:07;5.53;;;1.60;;
78672;SDS011;67988;60.086;30.354;2023-07-13T01:39:36;4.75;;;2.25;;
78672;SDS011;67988;60.086;30.354;2023-07-13T01:42:04;4.65;;;1.52;;
78672;SDS011;67988;60.086;30.354;2023-07-13T01:44:31;4.68;;;1.35;;
78672;SDS011;67988;60.086;30.354;2023-07-13T01:46:59;4.45;;;1.38;;
78672;SDS011;67988;60.086;30.354;2023-07-13T01:49:28;6.05;;;1.55;;
78672;SDS011;67988;60.086;30.354;2023-07-13T01:51:55;7.60;;;1.92;;
78672;SDS011;67988;60.086;30.354;2023-07-13T01:54:22;3.40;;;2.00;;
78672;SDS011;67988;60.086;30.354;2023-07-13T01:56:51;6.28;;;1.75;;
78672;SDS011;67988;60.086;30.354;2023-07-13T01:59:18;3.28;;;1.85;;
78672;SDS011;67988;60.086;30.354;2023-07-13T02:01:45;5.32;;;2.97;;
78672;SDS011;67988;60.086;30.354;2023-07-13T02:04:13;5.15;;;2.63;;
78672;SDS011;67988;60.086;30.354;2023-07-13T02:06:40;3.35;;;1.38;;
78672;SDS011;67988;60.086;30.354;2023-07-13T02:09:07;4.53;;;2.05;;
78672;SDS011;67988;60.086;30.354;2023-07-13T02:11:34;4.88;;;1.65;;
78672;SDS011;67988;60.086;30.354;2023-07-13T02:14:03;3.00;;;1.75;;
78672;SDS011;67988;60.086;30.354;2023-07-13T02:16:30;3.22;;;1.48;;
78672;SDS011;67988;60.086;30.354;2023-07-13T02:18:57;3.25;;;1.33;;
78672;SDS011;67988;60.086;30.354;2023-07-13T02:21:26;4.22;;;2.03;;
78672;SDS011;67988;60.086;30.354;2023-07-13T02:23:53;3.75;;;1.55;;
78672;SDS011;67988;60.086;30.354;2023-07-13T02:26:20;3.60;;;2.00;;
78672;SDS011;67988;60.086;30.354;2023-07-13T02:28:47;3.80;;;1.20;;
78672;SDS011;67988;60.086;30.354;2023-07-13T02:31:16;9.60;;;3.22;;
78672;SDS011;67988;60.086;30.354;2023-07-13T02:33:44;2.88;;;1.77;;
78672;SDS011;67988;60.086;30.354;2023-07-13T02:36:12;3.78;;;1.63;;
78672;SDS011;67988;60.086;30.354;2023-07-13T02:38:43;3.55;;;1.02;;
78672;SDS011;67988;60.086;30.354;2023-07-13T02:41:10;2.30;;;1.20;;
78672;SDS011;67988;60.086;30.354;2023-07-13T02:43:38;2.20;;;1.02;;
78672;SDS011;67988;60.086;30.354;2023-07-13T02:46:08;4.15;;;0.85;;
78672;SDS011;67988;60.086;30.354;2023-07-13T02:48:37;2.90;;;1.80;;
78672;SDS011;67988;60.086;30.354;2023-07-13T02:51:05;1.45;;;1.23;;
78672;SDS011;67988;60.086;30.354;2023-07-13T02:53:34;4.90;;;0.88;;
78672;SDS011;67988;60.086;30.354;2023-07-13T02:56:02;3.45;;;1.63;;
78672;SDS011;67988;60.086;30.354;2023-07-13T02:58:29;1.67;;;1.15;;
78672;SDS011;67988;60.086;30.354;2023-07-13T03:00:57;3.83;;;1.75;;
78672;SDS011;67988;60.086;30.354;2023-07-13T03:03:25;4.68;;;2.08;;
78672;SDS011;67988;60.086;30.354;2023-07-13T03:05:59;3.08;;;1.25;;
78672;SDS011;67988;60.086;30.354;2023-07-13T03:08:33;4.13;;;1.42;;
78672;SDS011;67988;60.086;30.354;2023-07-13T03:11:00;4.03;;;1.30;;
78672;SDS011;67988;60.086;30.354;2023-07-13T03:13:31;2.63;;;0.73;;
78672;SDS011;67988;60.086;30.354;2023-07-13T03:15:58;2.50;;;1.58;;
78672;SDS011;67988;60.086;30.354;2023-07-13T03:18:26;2.95;;;1.13;;
78672;SDS011;67988;60.086;30.354;2023-07-13T03:20:55;2.17;;;1.38;;
78672;SDS011;67988;60.086;30.354;2023-07-13T03:26:00;4.53;;;1.05;;
78672;SDS011;67988;60.086;30.354;2023-07-13T03:28:28;1.83;;;1.00;;
78672;SDS011;67988;60.086;30.354;2023-07-13T03:33:26;1.52;;;0.82;;
78672;SDS011;67988;60.086;30.354;2023-07-13T03:35:54;2.47;;;1.17;;
78672;SDS011;67988;60.086;30.354;2023-07-13T03:38:21;2.13;;;1.10;;
78672;SDS011;67988;60.086;30.354;2023-07-13T03:40:49;2.30;;;0.95;;
78672;SDS011;67988;60.086;30.354;2023-07-13T03:43:17;2.25;;;0.85;;
78672;SDS011;67988;60.086;30.354;2023-07-13T03:45:46;1.50;;;0.63;;
78672;SDS011;67988;60.086;30.354;2023-07-13T03:48:13;2.20;;;0.85;;
78672;SDS011;67988;60.086;30.354;2023-07-13T03:50:40;4.45;;;1.13;;
78672;SDS011;67988;60.086;30.354;2023-07-13T03:53:07;1.75;;;1.17;;
78672;SDS011;67988;60.086;30.354;2023-07-13T04:00:57;3.25;;;1.55;;
78672;SDS011;67988;60.086;30.354;2023-07-13T04:03:24;2.78;;;0.73;;
78672;SDS011;67988;60.086;30.354;2023-07-13T04:05:53;4.28;;;1.35;;
78672;SDS011;67988;60.086;30.354;2023-07-13T04:08:25;2.58;;;1.20;;
78672;SDS011;67988;60.086;30.354;2023-07-13T04:10:53;1.48;;;0.70;;
78672;SDS011;67988;60.086;30.354;2023-07-13T04:13:22;2.13;;;0.80;;
78672;SDS011;67988;60.086;30.354;2023-07-13T04:15:51;4.75;;;0.73;;
78672;SDS011;67988;60.086;30.354;2023-07-13T04:18:19;2.72;;;1.27;;
78672;SDS011;67988;60.086;30.354;2023-07-13T04:23:13;3.17;;;0.98;;
78672;SDS011;67988;60.086;30.354;2023-07-13T04:25:43;1.98;;;1.20;;
78672;SDS011;67988;60.086;30.354;2023-07-13T04:28:10;1.73;;;1.27;;
78672;SDS011;67988;60.086;30.354;2023-07-13T04:30:37;8.50;;;1.40;;
78672;SDS011;67988;60.086;30.354;2023-07-13T04:33:05;3.30;;;1.27;;
78672;SDS011;67988;60.086;30.354;2023-07-13T04:39:10;2.75;;;0.95;;
78672;SDS011;67988;60.086;30.354;2023-07-13T04:45:50;2.97;;;0.73;;
78672;SDS011;67988;60.086;30.354;2023-07-13T04:48:18;2.40;;;0.88;;
78672;SDS011;67988;60.086;30.354;2023-07-13T04:50:46;1.83;;;0.93;;
78672;SDS011;67988;60.086;30.354;2023-07-13T04:57:33;2.50;;;1.05;;
78672;SDS011;67988;60.086;30.354;2023-07-13T05:00:00;4.05;;;1.00;;
78672;SDS011;67988;60.086;30.354;2023-07-13T05:02:32;3.20;;;1.10;;
78672;SDS011;67988;60.086;30.354;2023-07-13T05:05:02;3.20;;;1.65;;
78672;SDS011;67988;60.086;30.354;2023-07-13T05:07:30;3.90;;;1.27;;
78672;SDS011;67988;60.086;30.354;2023-07-13T05:09:58;1.15;;;0.85;;
78672;SDS011;67988;60.086;30.354;2023-07-13T05:12:26;3.47;;;1.15;;
78672;SDS011;67988;60.086;30.354;2023-07-13T05:14:53;9.52;;;1.30;;
78672;SDS011;67988;60.086;30.354;2023-07-13T05:17:20;3.60;;;1.25;;
78672;SDS011;67988;60.086;30.354;2023-07-13T05:19:47;1.85;;;1.08;;
78672;SDS011;67988;60.086;30.354;2023-07-13T05:22:16;3.50;;;1.25;;
78672;SDS011;67988;60.086;30.354;2023-07-13T05:24:43;12.15;;;2.22;;
78672;SDS011;67988;60.086;30.354;2023-07-13T05:27:10;2.55;;;0.95;;
78672;SDS011;67988;60.086;30.354;2023-07-13T05:29:37;6.88;;;2.30;;
78672;SDS011;67988;60.086;30.354;2023-07-13T05:32:04;9.52;;;1.27;;
78672;SDS011;67988;60.086;30.354;2023-07-13T05:34:32;3.40;;;0.77;;
78672;SDS011;67988;60.086;30.354;2023-07-13T05:36:59;5.00;;;1.42;;
78672;SDS011;67988;60.086;30.354;2023-07-13T05:39:28;4.18;;;0.80;;
78672;SDS011;67988;60.086;30.354;2023-07-13T05:41:55;4.28;;;1.95;;
78672;SDS011;67988;60.086;30.354;2023-07-13T05:44:22;4.97;;;1.65;;
78672;SDS011;67988;60.086;30.354;2023-07-13T05:51:01;10.02;;;1.20;;
78672;SDS011;67988;60.086;30.354;2023-07-13T05:55:57;4.60;;;0.82;;
78672;SDS011;67988;60.086;30.354;2023-07-13T05:58:24;1.65;;;1.00;;
78672;SDS011;67988;60.086;30.354;2023-07-13T06:05:03;4.55;;;1.77;;
78672;SDS011;67988;60.086;30.354;2023-07-13T06:07:31;8.57;;;1.90;;
78672;SDS011;67988;60.086;30.354;2023-07-13T06:09:58;4.47;;;1.25;;
78672;SDS011;67988;60.086;30.354;2023-07-13T06:12:27;3.08;;;1.33;;
78672;SDS011;67988;60.086;30.354;2023-07-13T06:14:54;4.18;;;1.25;;
78672;SDS011;67988;60.086;30.354;2023-07-13T06:17:21;7.78;;;1.67;;
78672;SDS011;67988;60.086;30.354;2023-07-13T06:19:48;2.92;;;1.10;;
78672;SDS011;67988;60.086;30.354;2023-07-13T06:22:16;8.05;;;2.03;;
78672;SDS011;67988;60.086;30.354;2023-07-13T06:24:43;4.85;;;1.75;;
78672;SDS011;67988;60.086;30.354;2023-07-13T06:27:10;4.55;;;1.30;;
78672;SDS011;67988;60.086;30.354;2023-07-13T06:29:38;10.65;;;2.53;;
78672;SDS011;67988;60.086;30.354;2023-07-13T06:32:06;30.17;;;4.80;;
78672;SDS011;67988;60.086;30.354;2023-07-13T06:34:34;6.43;;;3.13;;
78672;SDS011;67988;60.086;30.354;2023-07-13T06:37:01;9.55;;;2.58;;
78672;SDS011;67988;60.086;30.354;2023-07-13T06:39:29;7.90;;;2.13;;
78672;SDS011;67988;60.086;30.354;2023-07-13T06:41:56;4.13;;;2.20;;
78672;SDS011;67988;60.086;30.354;2023-07-13T06:44:23;7.25;;;2.40;;
78672;SDS011;67988;60.086;30.354;2023-07-13T06:46:51;7.30;;;2.90;;
78672;SDS011;67988;60.086;30.354;2023-07-13T06:49:18;2.72;;;1.30;;
78672;SDS011;67988;60.086;30.354;2023-07-13T06:51:45;4.32;;;1.95;;
78672;SDS011;67988;60.086;30.354;2023-07-13T06:54:13;6.85;;;3.13;;
78672;SDS011;67988;60.086;30.354;2023-07-13T06:56:40;27.85;;;3.50;;
78672;SDS011;67988;60.086;30.354;2023-07-13T06:59:07;11.70;;;2.08;;
78672;SDS011;67988;60.086;30.354;2023-07-13T07:01:35;5.72;;;1.60;;
78672;SDS011;67988;60.086;30.354;2023-07-13T07:04:04;8.55;;;2.58;;
78672;SDS011;67988;60.086;30.354;2023-07-13T20:23:10;3.63;;;1.77;;
78672;SDS011;67988;60.086;30.354;2023-07-13T20:25:40;4.00;;;2.38;;
78672;SDS011;67988;60.086;30.354;2023-07-13T20:28:08;6.38;;;2.75;;
78672;SDS011;67988;60.086;30.354;2023-07-13T20:30:35;8.13;;;3.63;;
78672;SDS011;67988;60.086;30.354;2023-07-13T20:33:05;7.45;;;2.75;;
78672;SDS011;67988;60.086;30.354;2023-07-13T20:35:37;6.70;;;2.83;;
78672;SDS011;67988;60.086;30.354;2023-07-13T20:40:33;11.65;;;4.45;;
78672;SDS011;67988;60.086;30.354;2023-07-13T20:43:01;8.95;;;2.85;;
78672;SDS011;67988;60.086;30.354;2023-07-13T20:47:57;4.55;;;2.55;;
78672;SDS011;67988;60.086;30.354;2023-07-13T20:50:28;5.35;;;2.95;;
78672;SDS011;67988;60.086;30.354;2023-07-13T20:52:58;6.13;;;2.30;;
78672;SDS011;67988;60.086;30.354;2023-07-13T20:55:29;2.67;;;2.45;;
78672;SDS011;67988;60.086;30.354;2023-07-13T20:57:58;6.57;;;2.35;;
78672;SDS011;67988;60.086;30.354;2023-07-13T21:00:26;9.20;;;3.58;;
78672;SDS011;67988;60.086;30.354;2023-07-13T21:02:56;14.68;;;3.38;;
78672;SDS011;67988;60.086;30.354;2023-07-13T21:05:28;4.18;;;1.98;;
78672;SDS011;67988;60.086;30.354;2023-07-13T21:08:01;12.20;;;2.40;;
78672;SDS011;67988;60.086;30.354;2023-07-13T21:10:28;5.70;;;3.42;;
78672;SDS011;67988;60.086;30.354;2023-07-13T21:12:57;2.88;;;2.33;;
78672;SDS011;67988;60.086;30.354;2023-07-13T21:15:26;12.43;;;5.22;;
78672;SDS011;67988;60.086;30.354;2023-07-13T21:17:55;4.80;;;3.50;;
78672;SDS011;67988;60.086;30.354;2023-07-13T21:20:26;26.73;;;7.32;;
78672;SDS011;67988;60.086;30.354;2023-07-13T21:22:55;4.68;;;3.25;;
78672;SDS011;67988;60.086;30.354;2023-07-13T21:25:23;8.75;;;3.67;;
78672;SDS011;67988;60.086;30.354;2023-07-13T21:27:52;10.85;;;4.55;;
78672;SDS011;67988;60.086;30.354;2023-07-13T21:30:22;8.65;;;3.80;;
78672;SDS011;67988;60.086;30.354;2023-07-13T21:32:53;8.15;;;4.65;;
78672;SDS011;67988;60.086;30.354;2023-07-13T21:35:24;7.30;;;3.55;;
78672;SDS011;67988;60.086;30.354;2023-07-13T21:37:55;8.65;;;4.07;;
78672;SDS011;67988;60.086;30.354;2023-07-13T21:40:23;8.10;;;3.95;;
78672;SDS011;67988;60.086;30.354;2023-07-13T21:42:52;6.50;;;2.70;;
78672;SDS011;67988;60.086;30.354;2023-07-13T21:45:20;8.43;;;3.35;;
78672;SDS011;67988;60.086;30.354;2023-07-13T21:47:50;11.77;;;4.35;;
78672;SDS011;67988;60.086;30.354;2023-07-13T21:50:19;8.70;;;3.75;;
78672;SDS011;67988;60.086;30.354;2023-07-13T21:52:47;7.78;;;3.17;;
78672;SDS011;67988;60.086;30.354;2023-07-13T21:55:15;11.30;;;3.45;;
78672;SDS011;67988;60.086;30.354;2023-07-13T21:57:45;5.47;;;2.75;;
78672;SDS011;67988;60.086;30.354;2023-07-13T22:00:17;11.60;;;3.60;;
78672;SDS011;67988;60.086;30.354;2023-07-13T22:02:48;4.55;;;4.05;;
78672;SDS011;67988;60.086;30.354;2023-07-13T22:05:18;7.05;;;3.80;;
78672;SDS011;67988;60.086;30.354;2023-07-13T22:07:47;8.88;;;3.95;;
78672;SDS011;67988;60.086;30.354;2023-07-13T22:10:15;4.80;;;3.17;;
78672;SDS011;67988;60.086;30.354;2023-07-13T22:12:43;6.03;;;3.65;;
78672;SDS011;67988;60.086;30.354;2023-07-13T22:15:11;6.88;;;3.88;;
78672;SDS011;67988;60.086;30.354;2023-07-13T22:17:41;6.35;;;4.25;;
78672;SDS011;67988;60.086;30.354;2023-07-13T22:20:15;7.38;;;4.22;;
78672;SDS011;67988;60.086;30.354;2023-07-13T22:22:44;6.88;;;4.07;;
78672;SDS011;67988;60.086;30.354;2023-07-13T22:25:11;6.38;;;3.05;;
78672;SDS011;67988;60.086;30.354;2023-07-13T22:27:39;7.93;;;2.53;;
78672;SDS011;67988;60.086;30.354;2023-07-13T22:30:08;8.70;;;3.00;;
78672;SDS011;67988;60.086;30.354;2023-07-13T22:32:37;5.70;;;3.10;;
78672;SDS011;67988;60.086;30.354;2023-07-13T22:35:05;6.35;;;3.40;;
78672;SDS011;67988;60.086;30.354;2023-07-13T22:37:37;5.43;;;2.42;;
78672;SDS011;67988;60.086;30.354;2023-07-13T22:40:08;7.15;;;3.90;;
78672;SDS011;67988;60.086;30.354;2023-07-13T22:42:37;8.38;;;2.63;;
78672;SDS011;67988;60.086;30.354;2023-07-13T22:45:06;14.07;;;2.78;;
78672;SDS011;67988;60.086;30.354;2023-07-13T22:47:36;9.15;;;4.13;;
78672;SDS011;67988;60.086;30.354;2023-07-13T22:50:11;7.30;;;3.10;;
78672;SDS011;67988;60.086;30.354;2023-07-13T22:52:42;7.10;;;3.47;;
78672;SDS011;67988;60.086;30.354;2023-07-13T22:55:11;11.00;;;3.25;;
78672;SDS011;67988;60.086;30.354;2023-07-13T22:57:40;8.23;;;2.72;;
78672;SDS011;67988;60.086;30.354;2023-07-13T23:02:41;6.85;;;3.45;;
78672;SDS011;67988;60.086;30.354;2023-07-13T23:05:12;5.78;;;3.35;;
78672;SDS011;67988;60.086;30.354;2023-07-13T23:07:42;6.45;;;3.72;;
78672;SDS011;67988;60.086;30.354;2023-07-13T23:10:13;8.02;;;3.10;;
78672;SDS011;67988;60.086;30.354;2023-07-13T23:12:42;7.15;;;4.22;;
78672;SDS011;67988;60.086;30.354;2023-07-13T23:15:09;9.52;;;4.75;;
78672;SDS011;67988;60.086;30.354;2023-07-13T23:17:37;5.82;;;4.13;;
78672;SDS011;67988;60.086;30.354;2023-07-13T23:20:13;5.22;;;3.47;;
78672;SDS011;67988;60.086;30.354;2023-07-13T23:22:47;5.32;;;3.20;;
78672;SDS011;67988;60.086;30.354;2023-07-13T23:25:15;6.57;;;3.75;;
78672;SDS011;67988;60.086;30.354;2023-07-13T23:27:43;8.02;;;3.33;;
78672;SDS011;67988;60.086;30.354;2023-07-13T23:30:13;8.00;;;5.22;;
78672;SDS011;67988;60.086;30.354;2023-07-13T23:32:41;4.03;;;2.75;;
78672;SDS011;67988;60.086;30.354;2023-07-13T23:35:10;7.45;;;4.28;;
78672;SDS011;67988;60.086;30.354;2023-07-13T23:37:38;6.82;;;2.97;;
78672;SDS011;67988;60.086;30.354;2023-07-13T23:40:17;6.63;;;3.83;;
78672;SDS011;67988;60.086;30.354;2023-07-13T23:42:45;5.50;;;4.20;;
78672;SDS011;67988;60.086;30.354;2023-07-13T23:45:14;11.70;;;5.35;;
78672;SDS011;67988;60.086;30.354;2023-07-13T23:47:43;7.53;;;4.45;;
78672;SDS011;67988;60.086;30.354;2023-07-13T23:50:12;9.15;;;3.97;;
78672;SDS011;67988;60.086;30.354;2023-07-13T23:52:41;6.82;;;4.65;;
78672;SDS011;67988;60.086;30.354;2023-07-13T23:55:13;14.45;;;6.45;;
78672;SDS011;67988;60.086;30.354;2023-07-13T23:57:44;8.50;;;4.82;;
